Impacts TAF Board
For situational awareness. Not to be used for flight planning purposes.
IDs:

KSEA - Seattle-Tacoma Intl, WA, US

Issued at 0537 UTC 23 Oct 2018
Updated at 0801 UTC 23 Oct 2018
Potential Impact None Slight Moderate High
Time<<24/08Z 24/09Z 24/10Z 24/11Z 24/12Z 24/13Z 24/14Z 24/15Z 24/16Z 24/17Z 24/18Z 24/19Z 24/20Z
Type PRVL PRVL PRVL PRVL
VIS >6 >6 >6 >6
CIG 40 40 40 40
Cover OVC OVC OVC OVC
FltCat VFR VFR VFR VFR
WX -SHRA -SHRA -SHRA -SHRA
WDir 200 200 200 200
WSpd 8 8 8 8
WGst -- -- -- --
Raw TAF
KSEA 230537Z 2306/2412 VRB03KT 2SM BR SCT003
  FM230700 VRB03KT 1SM BR BKN002
  TEMPO 2309/2313 1/2SM FG VV002
  FM231300 16004KT 3SM BR SCT002 BKN006
  FM231600 18006KT 5SM HZ BR FEW005 FEW012
  FM231800 18006KT P6SM SCT100 BKN200
  FM240200 20008KT P6SM -SHRA BKN040 OVC080


METAR Board
Radar Display
Forecast Discussion
For situational awareness. Not to be used for flight planning purposes.